sensor_id;sensor_type;location;lat;lon;timestamp;pressure;altitude;pressure_sealevel;temperature
71649;BMP180;59492;45.638;11.714;2022-08-21T00:01:59;100677.80;;;26.70
71649;BMP180;59492;45.638;11.714;2022-08-21T00:04:25;100674.00;;;26.70
71649;BMP180;59492;45.638;11.714;2022-08-21T00:06:51;100674.80;;;26.70
71649;BMP180;59492;45.638;11.714;2022-08-21T00:09:18;100678.80;;;26.68
71649;BMP180;59492;45.638;11.714;2022-08-21T00:11:44;100675.80;;;26.64
71649;BMP180;59492;45.638;11.714;2022-08-21T00:14:10;100682.00;;;26.64
71649;BMP180;59492;45.638;11.714;2022-08-21T00:16:37;100680.60;;;26.62
71649;BMP180;59492;45.638;11.714;2022-08-21T00:19:04;100681.20;;;26.60
71649;BMP180;59492;45.638;11.714;2022-08-21T00:21:31;100685.20;;;26.60
71649;BMP180;59492;45.638;11.714;2022-08-21T00:23:57;100687.20;;;26.60
71649;BMP180;59492;45.638;11.714;2022-08-21T00:26:23;100686.20;;;26.60
71649;BMP180;59492;45.638;11.714;2022-08-21T00:28:48;100688.20;;;26.60
71649;BMP180;59492;45.638;11.714;2022-08-21T00:31:15;100686.20;;;26.60
71649;BMP180;59492;45.638;11.714;2022-08-21T00:33:41;100681.40;;;26.58
71649;BMP180;59492;45.638;11.714;2022-08-21T00:36:07;100681.40;;;26.58
71649;BMP180;59492;45.638;11.714;2022-08-21T00:38:33;100677.00;;;26.54
71649;BMP180;59492;45.638;11.714;2022-08-21T00:41:04;100676.20;;;26.56
71649;BMP180;59492;45.638;11.714;2022-08-21T00:43:33;100674.00;;;26.50
71649;BMP180;59492;45.638;11.714;2022-08-21T00:46:00;100670.00;;;26.50
71649;BMP180;59492;45.638;11.714;2022-08-21T00:48:26;100670.00;;;26.50
71649;BMP180;59492;45.638;11.714;2022-08-21T00:51:02;100666.60;;;26.50
71649;BMP180;59492;45.638;11.714;2022-08-21T00:53:28;100668.00;;;26.50
71649;BMP180;59492;45.638;11.714;2022-08-21T00:55:56;100666.80;;;26.50
71649;BMP180;59492;45.638;11.714;2022-08-21T00:58:22;100664.60;;;26.50
71649;BMP180;59492;45.638;11.714;2022-08-21T01:00:49;100664.40;;;26.50
71649;BMP180;59492;45.638;11.714;2022-08-21T01:03:19;100658.80;;;26.48
71649;BMP180;59492;45.638;11.714;2022-08-21T01:05:46;100659.20;;;26.48
71649;BMP180;59492;45.638;11.714;2022-08-21T01:08:12;100651.40;;;26.48
71649;BMP180;59492;45.638;11.714;2022-08-21T01:10:39;100650.00;;;26.44
71649;BMP180;59492;45.638;11.714;2022-08-21T01:13:07;100648.80;;;26.40
71649;BMP180;59492;45.638;11.714;2022-08-21T01:15:38;100647.00;;;26.40
71649;BMP180;59492;45.638;11.714;2022-08-21T01:18:06;100649.20;;;26.40
71649;BMP180;59492;45.638;11.714;2022-08-21T01:20:33;100644.80;;;26.40
71649;BMP180;59492;45.638;11.714;2022-08-21T01:23:00;100644.00;;;26.40
71649;BMP180;59492;45.638;11.714;2022-08-21T01:25:26;100644.40;;;26.40
71649;BMP180;59492;45.638;11.714;2022-08-21T01:27:52;100644.00;;;26.40
71649;BMP180;59492;45.638;11.714;2022-08-21T01:30:24;100644.20;;;26.40
71649;BMP180;59492;45.638;11.714;2022-08-21T01:32:52;100645.00;;;26.38
71649;BMP180;59492;45.638;11.714;2022-08-21T01:35:19;100637.60;;;26.38
71649;BMP180;59492;45.638;11.714;2022-08-21T01:37:46;100636.20;;;26.40
71649;BMP180;59492;45.638;11.714;2022-08-21T01:40:15;100636.20;;;26.38
71649;BMP180;59492;45.638;11.714;2022-08-21T01:42:42;100633.40;;;26.36
71649;BMP180;59492;45.638;11.714;2022-08-21T01:45:09;100631.40;;;26.38
71649;BMP180;59492;45.638;11.714;2022-08-21T01:47:35;100627.20;;;26.32
71649;BMP180;59492;45.638;11.714;2022-08-21T01:50:04;100625.80;;;26.32
71649;BMP180;59492;45.638;11.714;2022-08-21T01:52:30;100625.20;;;26.30
71649;BMP180;59492;45.638;11.714;2022-08-21T01:54:56;100625.40;;;26.30
71649;BMP180;59492;45.638;11.714;2022-08-21T01:57:22;100621.00;;;26.30
71649;BMP180;59492;45.638;11.714;2022-08-21T01:59:48;100621.40;;;26.30
71649;BMP180;59492;45.638;11.714;2022-08-21T02:02:13;100618.80;;;26.30
71649;BMP180;59492;45.638;11.714;2022-08-21T02:04:39;100616.60;;;26.30
71649;BMP180;59492;45.638;11.714;2022-08-21T02:07:05;100617.40;;;26.30
71649;BMP180;59492;45.638;11.714;2022-08-21T02:09:31;100621.20;;;26.30
71649;BMP180;59492;45.638;11.714;2022-08-21T02:11:56;100610.40;;;26.30
71649;BMP180;59492;45.638;11.714;2022-08-21T02:14:22;100606.40;;;26.30
71649;BMP180;59492;45.638;11.714;2022-08-21T02:16:48;100603.00;;;26.30
71649;BMP180;59492;45.638;11.714;2022-08-21T02:19:15;100601.80;;;26.30
71649;BMP180;59492;45.638;11.714;2022-08-21T02:21:41;100600.80;;;26.30
71649;BMP180;59492;45.638;11.714;2022-08-21T02:24:07;100604.80;;;26.30
71649;BMP180;59492;45.638;11.714;2022-08-21T02:26:33;100608.00;;;26.28
71649;BMP180;59492;45.638;11.714;2022-08-21T02:28:59;100608.00;;;26.28
71649;BMP180;59492;45.638;11.714;2022-08-21T02:31:25;100602.60;;;26.26
71649;BMP180;59492;45.638;11.714;2022-08-21T02:33:52;100600.80;;;26.22
71649;BMP180;59492;45.638;11.714;2022-08-21T02:36:18;100599.60;;;26.22
71649;BMP180;59492;45.638;11.714;2022-08-21T02:38:44;100601.80;;;26.24
71649;BMP180;59492;45.638;11.714;2022-08-21T02:41:13;100600.40;;;26.20
71649;BMP180;59492;45.638;11.714;2022-08-21T02:43:40;100597.60;;;26.20
71649;BMP180;59492;45.638;11.714;2022-08-21T02:46:06;100599.80;;;26.20
71649;BMP180;59492;45.638;11.714;2022-08-21T02:48:33;100598.60;;;26.20
71649;BMP180;59492;45.638;11.714;2022-08-21T02:51:08;100605.00;;;26.20
71649;BMP180;59492;45.638;11.714;2022-08-21T02:53:35;100603.80;;;26.20
71649;BMP180;59492;45.638;11.714;2022-08-21T02:56:04;100600.60;;;26.20
71649;BMP180;59492;45.638;11.714;2022-08-21T02:58:33;100603.40;;;26.20
71649;BMP180;59492;45.638;11.714;2022-08-21T03:01:00;100598.00;;;26.20
71649;BMP180;59492;45.638;11.714;2022-08-21T03:03:27;100597.00;;;26.20
71649;BMP180;59492;45.638;11.714;2022-08-21T03:05:54;100599.40;;;26.20
71649;BMP180;59492;45.638;11.714;2022-08-21T03:08:21;100594.80;;;26.20
71649;BMP180;59492;45.638;11.714;2022-08-21T03:10:51;100594.60;;;26.20
71649;BMP180;59492;45.638;11.714;2022-08-21T03:13:18;100597.20;;;26.18
71649;BMP180;59492;45.638;11.714;2022-08-21T03:15:46;100596.80;;;26.18
71649;BMP180;59492;45.638;11.714;2022-08-21T03:18:12;100597.80;;;26.20
71649;BMP180;59492;45.638;11.714;2022-08-21T03:20:39;100596.00;;;26.16
71649;BMP180;59492;45.638;11.714;2022-08-21T03:23:06;100594.80;;;26.16
71649;BMP180;59492;45.638;11.714;2022-08-21T03:25:33;100596.60;;;26.14
71649;BMP180;59492;45.638;11.714;2022-08-21T03:28:04;100595.00;;;26.14
71649;BMP180;59492;45.638;11.714;2022-08-21T03:30:31;100594.80;;;26.12
71649;BMP180;59492;45.638;11.714;2022-08-21T03:32:58;100596.60;;;26.14
71649;BMP180;59492;45.638;11.714;2022-08-21T03:35:25;100598.20;;;26.12
71649;BMP180;59492;45.638;11.714;2022-08-21T03:37:51;100596.40;;;26.10
71649;BMP180;59492;45.638;11.714;2022-08-21T03:40:18;100593.60;;;26.10
71649;BMP180;59492;45.638;11.714;2022-08-21T03:42:46;100591.20;;;26.10
71649;BMP180;59492;45.638;11.714;2022-08-21T03:45:16;100596.80;;;26.10
71649;BMP180;59492;45.638;11.714;2022-08-21T03:47:58;100598.40;;;26.10
71649;BMP180;59492;45.638;11.714;2022-08-21T03:50:26;100598.80;;;26.10
71649;BMP180;59492;45.638;11.714;2022-08-21T03:52:52;100599.60;;;26.10
71649;BMP180;59492;45.638;11.714;2022-08-21T03:55:18;100597.20;;;26.10
71649;BMP180;59492;45.638;11.714;2022-08-21T03:57:44;100597.80;;;26.10
71649;BMP180;59492;45.638;11.714;2022-08-21T04:00:12;100601.20;;;26.10
71649;BMP180;59492;45.638;11.714;2022-08-21T04:02:39;100602.20;;;26.10
71649;BMP180;59492;45.638;11.714;2022-08-21T04:05:05;100604.60;;;26.10
71649;BMP180;59492;45.638;11.714;2022-08-21T04:07:31;100602.60;;;26.08
71649;BMP180;59492;45.638;11.714;2022-08-21T04:09:56;100600.80;;;26.08
71649;BMP180;59492;45.638;11.714;2022-08-21T04:12:22;100605.20;;;26.08
71649;BMP180;59492;45.638;11.714;2022-08-21T04:14:48;100602.40;;;26.06
71649;BMP180;59492;45.638;11.714;2022-08-21T04:17:17;100610.80;;;26.06
71649;BMP180;59492;45.638;11.714;2022-08-21T04:19:43;100613.40;;;26.02
71649;BMP180;59492;45.638;11.714;2022-08-21T04:22:09;100615.00;;;26.00
71649;BMP180;59492;45.638;11.714;2022-08-21T04:24:34;100619.00;;;26.02
71649;BMP180;59492;45.638;11.714;2022-08-21T04:27:00;100624.40;;;26.04
71649;BMP180;59492;45.638;11.714;2022-08-21T04:29:26;100627.40;;;26.00
71649;BMP180;59492;45.638;11.714;2022-08-21T04:31:51;100625.60;;;26.00
71649;BMP180;59492;45.638;11.714;2022-08-21T04:34:18;100628.40;;;26.00
71649;BMP180;59492;45.638;11.714;2022-08-21T04:36:44;100625.60;;;26.00
71649;BMP180;59492;45.638;11.714;2022-08-21T04:39:09;100629.40;;;26.00
71649;BMP180;59492;45.638;11.714;2022-08-21T04:41:35;100627.60;;;26.00
71649;BMP180;59492;45.638;11.714;2022-08-21T04:44:02;100626.20;;;26.00
71649;BMP180;59492;45.638;11.714;2022-08-21T04:46:28;100626.60;;;26.00
71649;BMP180;59492;45.638;11.714;2022-08-21T04:48:54;100629.60;;;26.00
71649;BMP180;59492;45.638;11.714;2022-08-21T04:51:25;100628.40;;;26.00
71649;BMP180;59492;45.638;11.714;2022-08-21T04:54:00;100619.20;;;26.06
71649;BMP180;59492;45.638;11.714;2022-08-21T04:59:13;100617.00;;;26.10
71649;BMP180;59492;45.638;11.714;2022-08-21T05:01:41;100620.80;;;26.14
71649;BMP180;59492;45.638;11.714;2022-08-21T05:04:11;100624.60;;;26.20
71649;BMP180;59492;45.638;11.714;2022-08-21T05:06:37;100621.80;;;26.20
71649;BMP180;59492;45.638;11.714;2022-08-21T05:09:05;100623.40;;;26.20
71649;BMP180;59492;45.638;11.714;2022-08-21T05:11:31;100623.40;;;26.22
71649;BMP180;59492;45.638;11.714;2022-08-21T05:13:58;100623.40;;;26.30
71649;BMP180;59492;45.638;11.714;2022-08-21T05:16:24;100623.00;;;26.30
71649;BMP180;59492;45.638;11.714;2022-08-21T05:18:49;100623.20;;;26.36
71649;BMP180;59492;45.638;11.714;2022-08-21T05:21:15;100623.60;;;26.40
71649;BMP180;59492;45.638;11.714;2022-08-21T05:23:41;100619.20;;;26.40
71649;BMP180;59492;45.638;11.714;2022-08-21T05:26:08;100618.00;;;26.50
71649;BMP180;59492;45.638;11.714;2022-08-21T05:28:34;100618.40;;;26.50
71649;BMP180;59492;45.638;11.714;2022-08-21T05:31:00;100619.60;;;26.60
71649;BMP180;59492;45.638;11.714;2022-08-21T05:33:25;100624.60;;;26.62
71649;BMP180;59492;45.638;11.714;2022-08-21T05:35:52;100625.40;;;26.70
71649;BMP180;59492;45.638;11.714;2022-08-21T05:38:21;100625.00;;;26.70
71649;BMP180;59492;45.638;11.714;2022-08-21T05:40:47;100620.80;;;26.70
71649;BMP180;59492;45.638;11.714;2022-08-21T05:43:13;100617.60;;;26.80
71649;BMP180;59492;45.638;11.714;2022-08-21T05:45:39;100617.80;;;26.80
71649;BMP180;59492;45.638;11.714;2022-08-21T05:48:10;100621.00;;;26.90
71649;BMP180;59492;45.638;11.714;2022-08-21T05:50:36;100620.60;;;26.90
71649;BMP180;59492;45.638;11.714;2022-08-21T05:53:04;100623.80;;;26.90
71649;BMP180;59492;45.638;11.714;2022-08-21T05:55:30;100627.00;;;27.00
71649;BMP180;59492;45.638;11.714;2022-08-21T05:57:56;100630.00;;;27.00
71649;BMP180;59492;45.638;11.714;2022-08-21T06:00:21;100634.20;;;27.10
71649;BMP180;59492;45.638;11.714;2022-08-21T06:02:49;100632.40;;;27.10
71649;BMP180;59492;45.638;11.714;2022-08-21T06:05:16;100629.80;;;27.10
71649;BMP180;59492;45.638;11.714;2022-08-21T06:07:43;100625.40;;;27.20
71649;BMP180;59492;45.638;11.714;2022-08-21T06:10:09;100623.80;;;27.20
71649;BMP180;59492;45.638;11.714;2022-08-21T06:12:35;100629.80;;;27.24
71649;BMP180;59492;45.638;11.714;2022-08-21T06:15:01;100633.40;;;27.30
71649;BMP180;59492;45.638;11.714;2022-08-21T06:17:27;100636.40;;;27.30
71649;BMP180;59492;45.638;11.714;2022-08-21T06:19:53;100632.20;;;27.32
71649;BMP180;59492;45.638;11.714;2022-08-21T06:22:20;100627.00;;;27.40
71649;BMP180;59492;45.638;11.714;2022-08-21T06:24:46;100628.20;;;27.40
71649;BMP180;59492;45.638;11.714;2022-08-21T06:27:12;100629.80;;;27.44
71649;BMP180;59492;45.638;11.714;2022-08-21T06:29:38;100636.00;;;27.50
71649;BMP180;59492;45.638;11.714;2022-08-21T06:32:04;100633.20;;;27.50
71649;BMP180;59492;45.638;11.714;2022-08-21T06:34:36;100631.60;;;27.50
71649;BMP180;59492;45.638;11.714;2022-08-21T06:37:03;100634.60;;;27.60
71649;BMP180;59492;45.638;11.714;2022-08-21T06:39:29;100635.80;;;27.60
71649;BMP180;59492;45.638;11.714;2022-08-21T06:41:55;100638.80;;;27.60
71649;BMP180;59492;45.638;11.714;2022-08-21T06:44:21;100639.80;;;27.70
71649;BMP180;59492;45.638;11.714;2022-08-21T06:46:47;100643.00;;;27.70
71649;BMP180;59492;45.638;11.714;2022-08-21T06:49:13;100640.20;;;27.70
71649;BMP180;59492;45.638;11.714;2022-08-21T06:51:39;100636.20;;;27.72
71649;BMP180;59492;45.638;11.714;2022-08-21T06:54:05;100632.60;;;27.80
71649;BMP180;59492;45.638;11.714;2022-08-21T06:56:30;100625.80;;;27.80
71649;BMP180;59492;45.638;11.714;2022-08-21T06:58:56;100624.60;;;27.80
71649;BMP180;59492;45.638;11.714;2022-08-21T07:01:24;100625.20;;;27.80
71649;BMP180;59492;45.638;11.714;2022-08-21T07:03:50;100629.80;;;27.80
71649;BMP180;59492;45.638;11.714;2022-08-21T07:06:16;100630.00;;;27.80
71649;BMP180;59492;45.638;11.714;2022-08-21T07:08:43;100638.20;;;27.82
71649;BMP180;59492;45.638;11.714;2022-08-21T07:11:18;100633.80;;;27.80
71649;BMP180;59492;45.638;11.714;2022-08-21T07:13:48;100632.80;;;27.80
71649;BMP180;59492;45.638;11.714;2022-08-21T07:16:14;100630.00;;;27.88
71649;BMP180;59492;45.638;11.714;2022-08-21T07:18:41;100630.00;;;27.90
71649;BMP180;59492;45.638;11.714;2022-08-21T07:21:08;100631.00;;;27.90
71649;BMP180;59492;45.638;11.714;2022-08-21T07:23:38;100629.40;;;27.90
71649;BMP180;59492;45.638;11.714;2022-08-21T07:26:05;100628.40;;;27.90
71649;BMP180;59492;45.638;11.714;2022-08-21T07:28:31;100625.60;;;27.90
71649;BMP180;59492;45.638;11.714;2022-08-21T07:30:58;100632.40;;;27.90
71649;BMP180;59492;45.638;11.714;2022-08-21T07:33:26;100628.00;;;27.90
71649;BMP180;59492;45.638;11.714;2022-08-21T07:35:52;100628.20;;;27.90
71649;BMP180;59492;45.638;11.714;2022-08-21T07:38:18;100624.40;;;27.90
71649;BMP180;59492;45.638;11.714;2022-08-21T07:40:46;100628.80;;;27.90
71649;BMP180;59492;45.638;11.714;2022-08-21T07:43:13;100631.80;;;27.90
71649;BMP180;59492;45.638;11.714;2022-08-21T07:45:38;100635.40;;;27.90
71649;BMP180;59492;45.638;11.714;2022-08-21T07:48:04;100636.00;;;27.90
71649;BMP180;59492;45.638;11.714;2022-08-21T07:50:30;100635.40;;;27.90
71649;BMP180;59492;45.638;11.714;2022-08-21T07:52:55;100632.60;;;27.92
71649;BMP180;59492;45.638;11.714;2022-08-21T07:55:22;100634.60;;;27.98
71649;BMP180;59492;45.638;11.714;2022-08-21T07:57:48;100630.00;;;28.00
71649;BMP180;59492;45.638;11.714;2022-08-21T08:00:17;100624.00;;;27.98
71649;BMP180;59492;45.638;11.714;2022-08-21T08:02:48;100623.40;;;27.98
71649;BMP180;59492;45.638;11.714;2022-08-21T08:05:16;100623.20;;;27.98
71649;BMP180;59492;45.638;11.714;2022-08-21T08:07:43;100622.20;;;28.00
71649;BMP180;59492;45.638;11.714;2022-08-21T08:10:09;100619.00;;;28.00
71649;BMP180;59492;45.638;11.714;2022-08-21T08:12:37;100619.40;;;28.00
71649;BMP180;59492;45.638;11.714;2022-08-21T08:15:07;100621.60;;;28.00
71649;BMP180;59492;45.638;11.714;2022-08-21T08:17:33;100619.60;;;28.00
71649;BMP180;59492;45.638;11.714;2022-08-21T08:20:00;100617.60;;;28.00
71649;BMP180;59492;45.638;11.714;2022-08-21T08:22:26;100613.80;;;28.00
71649;BMP180;59492;45.638;11.714;2022-08-21T08:24:53;100610.60;;;28.00
71649;BMP180;59492;45.638;11.714;2022-08-21T08:27:20;100608.60;;;28.00
71649;BMP180;59492;45.638;11.714;2022-08-21T08:29:46;100606.40;;;28.00
71649;BMP180;59492;45.638;11.714;2022-08-21T08:32:13;100605.60;;;28.00
71649;BMP180;59492;45.638;11.714;2022-08-21T08:34:39;100597.60;;;28.00
71649;BMP180;59492;45.638;11.714;2022-08-21T08:37:06;100595.60;;;28.02
71649;BMP180;59492;45.638;11.714;2022-08-21T08:39:32;100591.40;;;28.02
71649;BMP180;59492;45.638;11.714;2022-08-21T08:42:22;100590.40;;;28.02
71649;BMP180;59492;45.638;11.714;2022-08-21T08:44:56;100593.40;;;28.00
71649;BMP180;59492;45.638;11.714;2022-08-21T08:47:24;100592.00;;;28.00
71649;BMP180;59492;45.638;11.714;2022-08-21T08:50:04;100589.80;;;28.02
71649;BMP180;59492;45.638;11.714;2022-08-21T08:52:33;100594.40;;;28.00
71649;BMP180;59492;45.638;11.714;2022-08-21T08:55:12;100590.00;;;28.00
71649;BMP180;59492;45.638;11.714;2022-08-21T08:57:43;100588.80;;;28.00
71649;BMP180;59492;45.638;11.714;2022-08-21T09:00:12;100583.00;;;28.00
71649;BMP180;59492;45.638;11.714;2022-08-21T09:02:39;100587.40;;;28.00
71649;BMP180;59492;45.638;11.714;2022-08-21T09:05:07;100590.20;;;28.00
71649;BMP180;59492;45.638;11.714;2022-08-21T09:07:47;100588.60;;;28.00
71649;BMP180;59492;45.638;11.714;2022-08-21T09:10:26;100588.00;;;28.00
71649;BMP180;59492;45.638;11.714;2022-08-21T09:13:11;100586.60;;;28.00
71649;BMP180;59492;45.638;11.714;2022-08-21T09:19:00;100587.40;;;28.00
71649;BMP180;59492;45.638;11.714;2022-08-21T09:27:16;100580.60;;;27.92
71649;BMP180;59492;45.638;11.714;2022-08-21T09:29:45;100579.40;;;27.98
71649;BMP180;59492;45.638;11.714;2022-08-21T09:32:22;100578.80;;;27.98
71649;BMP180;59492;45.638;11.714;2022-08-21T09:35:18;100574.40;;;27.96
71649;BMP180;59492;45.638;11.714;2022-08-21T09:38:00;100572.00;;;27.90
71649;BMP180;59492;45.638;11.714;2022-08-21T09:43:16;100563.80;;;27.90
71649;BMP180;59492;45.638;11.714;2022-08-21T09:45:43;100556.80;;;27.90
71649;BMP180;59492;45.638;11.714;2022-08-21T09:48:24;100555.40;;;27.90
71649;BMP180;59492;45.638;11.714;2022-08-21T09:50:51;100557.00;;;27.90
71649;BMP180;59492;45.638;11.714;2022-08-21T09:58:42;100558.80;;;27.82
71649;BMP180;59492;45.638;11.714;2022-08-21T10:01:14;100561.20;;;27.86
71649;BMP180;59492;45.638;11.714;2022-08-21T10:03:40;100563.20;;;27.84
71649;BMP180;59492;45.638;11.714;2022-08-21T10:06:08;100561.40;;;27.80
71649;BMP180;59492;45.638;11.714;2022-08-21T10:08:40;100564.00;;;27.80
71649;BMP180;59492;45.638;11.714;2022-08-21T10:11:15;100562.00;;;27.80
71649;BMP180;59492;45.638;11.714;2022-08-21T10:24:33;100563.40;;;27.76
71649;BMP180;59492;45.638;11.714;2022-08-21T10:30:39;100564.60;;;27.70
71649;BMP180;59492;45.638;11.714;2022-08-21T10:36:25;100564.80;;;27.70
71649;BMP180;59492;45.638;11.714;2022-08-21T10:46:56;100552.80;;;27.62
71649;BMP180;59492;45.638;11.714;2022-08-21T10:49:43;100545.20;;;27.64
71649;BMP180;59492;45.638;11.714;2022-08-21T10:52:33;100545.40;;;27.60
71649;BMP180;59492;45.638;11.714;2022-08-21T10:55:21;100544.60;;;27.60
71649;BMP180;59492;45.638;11.714;2022-08-21T10:58:04;100542.20;;;27.60
71649;BMP180;59492;45.638;11.714;2022-08-21T11:00:43;100544.60;;;27.60
71649;BMP180;59492;45.638;11.714;2022-08-21T11:03:29;100545.80;;;27.60
71649;BMP180;59492;45.638;11.714;2022-08-21T11:06:09;100546.20;;;27.60
71649;BMP180;59492;45.638;11.714;2022-08-21T11:08:45;100540.80;;;27.58
71649;BMP180;59492;45.638;11.714;2022-08-21T11:11:23;100538.60;;;27.60
71649;BMP180;59492;45.638;11.714;2022-08-21T11:19:57;100533.00;;;27.50
71649;BMP180;59492;45.638;11.714;2022-08-21T11:22:45;100527.80;;;27.50
71649;BMP180;59492;45.638;11.714;2022-08-21T11:25:17;100526.00;;;27.50
71649;BMP180;59492;45.638;11.714;2022-08-21T11:27:50;100525.00;;;27.50
71649;BMP180;59492;45.638;11.714;2022-08-21T11:30:18;100522.20;;;27.50
71649;BMP180;59492;45.638;11.714;2022-08-21T11:33:03;100513.80;;;27.50
71649;BMP180;59492;45.638;11.714;2022-08-21T11:35:41;100513.20;;;27.48
71649;BMP180;59492;45.638;11.714;2022-08-21T11:38:29;100517.20;;;27.50
71649;BMP180;59492;45.638;11.714;2022-08-21T11:41:31;100512.00;;;27.42
71649;BMP180;59492;45.638;11.714;2022-08-21T11:44:21;100506.40;;;27.40
71649;BMP180;59492;45.638;11.714;2022-08-21T11:47:15;100506.60;;;27.40
71649;BMP180;59492;45.638;11.714;2022-08-21T11:52:47;100504.00;;;27.40
71649;BMP180;59492;45.638;11.714;2022-08-21T11:58:10;100500.00;;;27.40
71649;BMP180;59492;45.638;11.714;2022-08-21T12:00:47;100500.00;;;27.34
71649;BMP180;59492;45.638;11.714;2022-08-21T12:03:31;100502.80;;;27.34
71649;BMP180;59492;45.638;11.714;2022-08-21T12:06:01;100498.00;;;27.30
71649;BMP180;59492;45.638;11.714;2022-08-21T12:08:36;100497.60;;;27.38
71649;BMP180;59492;45.638;11.714;2022-08-21T12:13:52;100492.80;;;27.40
71649;BMP180;59492;45.638;11.714;2022-08-21T12:16:33;100488.80;;;27.40
71649;BMP180;59492;45.638;11.714;2022-08-21T12:19:08;100488.00;;;27.40
71649;BMP180;59492;45.638;11.714;2022-08-21T12:22:10;100487.60;;;27.50
71649;BMP180;59492;45.638;11.714;2022-08-21T12:24:40;100484.60;;;27.50
71649;BMP180;59492;45.638;11.714;2022-08-21T12:32:58;100475.20;;;27.70
71649;BMP180;59492;45.638;11.714;2022-08-21T12:35:46;100475.60;;;27.80
71649;BMP180;59492;45.638;11.714;2022-08-21T12:38:27;100466.00;;;27.80
71649;BMP180;59492;45.638;11.714;2022-08-21T12:43:28;100466.80;;;27.92
71649;BMP180;59492;45.638;11.714;2022-08-21T12:45:55;100465.40;;;28.00
71649;BMP180;59492;45.638;11.714;2022-08-21T12:51:14;100457.60;;;28.10
71649;BMP180;59492;45.638;11.714;2022-08-21T12:53:51;100449.40;;;28.10
71649;BMP180;59492;45.638;11.714;2022-08-21T12:56:20;100445.80;;;28.12
71649;BMP180;59492;45.638;11.714;2022-08-21T12:58:55;100448.00;;;28.20
71649;BMP180;59492;45.638;11.714;2022-08-21T13:01:32;100442.20;;;28.20
71649;BMP180;59492;45.638;11.714;2022-08-21T13:04:03;100440.20;;;28.20
71649;BMP180;59492;45.638;11.714;2022-08-21T13:06:36;100442.60;;;28.28
71649;BMP180;59492;45.638;11.714;2022-08-21T13:09:08;100443.00;;;28.30
71649;BMP180;59492;45.638;11.714;2022-08-21T13:11:36;100435.60;;;28.30
71649;BMP180;59492;45.638;11.714;2022-08-21T13:14:03;100437.40;;;28.30
71649;BMP180;59492;45.638;11.714;2022-08-21T13:16:30;100434.60;;;28.36
71649;BMP180;59492;45.638;11.714;2022-08-21T13:18:59;100426.40;;;28.40
71649;BMP180;59492;45.638;11.714;2022-08-21T13:21:31;100427.40;;;28.40
71649;BMP180;59492;45.638;11.714;2022-08-21T13:24:29;100425.20;;;28.40
71649;BMP180;59492;45.638;11.714;2022-08-21T13:26:56;100423.80;;;28.40
71649;BMP180;59492;45.638;11.714;2022-08-21T13:29:27;100420.00;;;28.44
71649;BMP180;59492;45.638;11.714;2022-08-21T13:32:02;100417.00;;;28.50
71649;BMP180;59492;45.638;11.714;2022-08-21T13:34:36;100414.60;;;28.50
71649;BMP180;59492;45.638;11.714;2022-08-21T13:37:07;100408.40;;;28.50
71649;BMP180;59492;45.638;11.714;2022-08-21T13:39:34;100409.40;;;28.50
71649;BMP180;59492;45.638;11.714;2022-08-21T13:42:03;100402.00;;;28.60
71649;BMP180;59492;45.638;11.714;2022-08-21T13:44:35;100403.00;;;28.60
71649;BMP180;59492;45.638;11.714;2022-08-21T13:47:03;100404.60;;;28.60
71649;BMP180;59492;45.638;11.714;2022-08-21T13:49:36;100403.00;;;28.60
71649;BMP180;59492;45.638;11.714;2022-08-21T13:52:03;100403.00;;;28.66
71649;BMP180;59492;45.638;11.714;2022-08-21T13:54:37;100397.60;;;28.68
71649;BMP180;59492;45.638;11.714;2022-08-21T13:57:03;100397.40;;;28.70
71649;BMP180;59492;45.638;11.714;2022-08-21T13:59:34;100398.40;;;28.70
71649;BMP180;59492;45.638;11.714;2022-08-21T14:02:14;100398.40;;;28.68
71649;BMP180;59492;45.638;11.714;2022-08-21T14:07:20;100394.60;;;28.60
71649;BMP180;59492;45.638;11.714;2022-08-21T14:09:49;100389.80;;;28.60
71649;BMP180;59492;45.638;11.714;2022-08-21T14:12:28;100387.40;;;28.60
71649;BMP180;59492;45.638;11.714;2022-08-21T14:14:56;100390.60;;;28.50
71649;BMP180;59492;45.638;11.714;2022-08-21T14:17:32;100394.60;;;28.50
71649;BMP180;59492;45.638;11.714;2022-08-21T14:19:58;100388.40;;;28.50
71649;BMP180;59492;45.638;11.714;2022-08-21T14:22:45;100381.00;;;28.48
71649;BMP180;59492;45.638;11.714;2022-08-21T14:27:55;100373.40;;;28.40
71649;BMP180;59492;45.638;11.714;2022-08-21T14:30:31;100368.20;;;28.30
71649;BMP180;59492;45.638;11.714;2022-08-21T14:32:58;100363.20;;;28.30
71649;BMP180;59492;45.638;11.714;2022-08-21T14:35:25;100362.60;;;28.28
71649;BMP180;59492;45.638;11.714;2022-08-21T14:37:51;100359.00;;;28.22
71649;BMP180;59492;45.638;11.714;2022-08-21T14:40:18;100358.20;;;28.20
71649;BMP180;59492;45.638;11.714;2022-08-21T14:42:44;100354.00;;;28.18
71649;BMP180;59492;45.638;11.714;2022-08-21T14:45:19;100354.20;;;28.10
71649;BMP180;59492;45.638;11.714;2022-08-21T14:47:47;100352.20;;;28.08
71649;BMP180;59492;45.638;11.714;2022-08-21T14:50:13;100348.60;;;28.02
71649;BMP180;59492;45.638;11.714;2022-08-21T14:52:40;100345.20;;;28.00
71649;BMP180;59492;45.638;11.714;2022-08-21T14:55:08;100346.20;;;27.98
71649;BMP180;59492;45.638;11.714;2022-08-21T14:57:42;100341.20;;;27.90
71649;BMP180;59492;45.638;11.714;2022-08-21T15:00:11;100341.60;;;27.90
71649;BMP180;59492;45.638;11.714;2022-08-21T15:02:37;100339.60;;;27.86
71649;BMP180;59492;45.638;11.714;2022-08-21T15:05:04;100339.00;;;27.80
71649;BMP180;59492;45.638;11.714;2022-08-21T15:07:29;100340.20;;;27.80
71649;BMP180;59492;45.638;11.714;2022-08-21T15:09:55;100334.80;;;27.80
71649;BMP180;59492;45.638;11.714;2022-08-21T15:12:21;100330.60;;;27.72
71649;BMP180;59492;45.638;11.714;2022-08-21T15:14:47;100329.00;;;27.70